Time;durP1;ratioP1;P1;durP2;ratioP2;P2;SDS_P1;SDS_P2;PMS_P1;PMS_P2;Temp;Humidity;BMP_temperature;BMP_pressure;BME280_temperature;BME280_humidity;BME280_pressure;Samples;Min_cycle;Max_cycle;Signal;HPM_P1;HPM_P2
2024/03/22 00:01:46;;;;;;;5.32;3.50;;;;;;;12.44;58.90;95640.34;6215221;23;20092;-87
2024/03/22 00:04:12;;;;;;;5.28;3.30;;;;;;;12.60;58.87;95641.16;6215358;23;20109;-87
2024/03/22 00:06:39;;;;;;;4.50;3.40;;;;;;;12.61;58.42;95624.53;6214927;23;20000;-86
2024/03/22 00:09:05;;;;;;;6.53;3.40;;;;;;;12.69;58.20;95640.88;6215083;23;20025;-87
2024/03/22 00:11:30;;;;;;;4.38;3.40;;;;;;;12.68;58.19;95636.69;6215317;23;20041;-87
2024/03/22 00:13:56;;;;;;;4.47;3.25;;;;;;;12.58;58.19;95622.28;6191228;23;20012;-87
2024/03/22 00:16:21;;;;;;;4.45;3.50;;;;;;;12.56;58.39;95627.66;6215314;23;20012;-86
2024/03/22 00:18:49;;;;;;;4.78;3.35;;;;;;;12.59;58.22;95621.28;6189752;23;20004;-87
2024/03/22 00:21:14;;;;;;;3.85;3.38;;;;;;;12.65;58.12;95633.63;6190962;23;20063;-87
2024/03/22 00:23:42;;;;;;;5.65;3.20;;;;;;;12.19;59.02;95631.94;6215302;23;19996;-87
2024/03/22 00:26:08;;;;;;;4.80;3.40;;;;;;;12.24;58.92;95628.78;6215780;23;20024;-87
2024/03/22 00:28:33;;;;;;;4.90;3.17;;;;;;;12.49;58.15;95638.03;6190171;23;20086;-87
2024/03/22 00:30:59;;;;;;;5.28;3.25;;;;;;;12.37;58.17;95628.19;6165661;23;20012;-87
2024/03/22 00:33:27;;;;;;;4.10;3.05;;;;;;;12.08;59.09;95635.78;6191842;23;20146;-87
2024/03/22 00:35:52;;;;;;;4.53;2.97;;;;;;;12.35;58.65;95638.00;6216725;23;20028;-87
2024/03/22 00:38:20;;;;;;;6.25;3.50;;;;;;;12.03;59.46;95629.47;6199620;23;20072;-88
2024/03/22 00:40:45;;;;;;;4.18;2.97;;;;;;;12.05;59.51;95632.72;6164699;23;20039;-87
2024/03/22 00:43:11;;;;;;;4.63;2.92;;;;;;;12.28;58.60;95633.50;6188961;23;20011;-87
2024/03/22 00:45:36;;;;;;;4.88;3.20;;;;;;;12.38;58.13;95622.00;6214577;23;20008;-87
2024/03/22 00:48:02;;;;;;;5.38;3.22;;;;;;;12.27;58.43;95633.66;6164210;23;20017;-87
2024/03/22 00:50:27;;;;;;;4.03;3.20;;;;;;;12.45;58.05;95628.09;6164165;23;20057;-87
2024/03/22 00:52:57;;;;;;;4.03;2.92;;;;;;;12.32;58.33;95626.94;6213288;23;20075;-88
2024/03/22 00:55:23;;;;;;;5.80;3.20;;;;;;;11.74;60.04;95618.75;6212545;23;20019;-87
2024/03/22 00:57:49;;;;;;;6.47;3.53;;;;;;;11.95;58.95;95606.91;6212782;23;20012;-88
2024/03/22 01:00:16;;;;;;;5.78;3.60;;;;;;;12.09;58.72;95608.75;6212652;23;20011;-88
2024/03/22 01:02:41;;;;;;;4.97;3.13;;;;;;;12.27;57.93;95612.81;6188300;23;20005;-87
2024/03/22 01:05:07;;;;;;;4.50;3.20;;;;;;;12.20;58.16;95604.06;6212347;23;20055;-85
2024/03/22 01:07:33;;;;;;;4.95;3.33;;;;;;;12.10;58.39;95601.72;6212740;23;20079;-85
2024/03/22 01:09:58;;;;;;;4.07;3.47;;;;;;;12.32;57.70;95610.47;6212298;23;20051;-86
2024/03/22 01:12:23;;;;;;;7.00;3.60;;;;;;;12.11;57.99;95601.53;6188060;23;20008;-87
2024/03/22 01:14:49;;;;;;;6.55;3.53;;;;;;;12.21;58.11;95613.53;6213308;23;20015;-87
2024/03/22 01:17:14;;;;;;;4.85;3.10;;;;;;;12.29;57.62;95603.00;6164200;23;20043;-87
2024/03/22 01:19:40;;;;;;;4.53;3.45;;;;;;;12.16;57.93;95601.00;6214252;23;19996;-87
2024/03/22 01:22:06;;;;;;;5.20;3.55;;;;;;;11.67;59.64;95602.22;6190204;23;20012;-87
2024/03/22 01:24:32;;;;;;;4.55;3.50;;;;;;;11.68;59.66;95614.25;6164787;23;20016;-87
2024/03/22 01:26:57;;;;;;;6.18;3.22;;;;;;;11.67;59.58;95606.59;6189244;23;20005;-87
2024/03/22 01:29:23;;;;;;;4.18;3.58;;;;;;;11.64;59.59;95597.34;6189467;23;20024;-86
2024/03/22 01:31:48;;;;;;;5.68;3.88;;;;;;;11.78;59.23;95597.56;6164537;23;20013;-87
2024/03/22 01:34:14;;;;;;;5.07;3.60;;;;;;;11.86;58.84;95602.69;6189599;23;20071;-87
2024/03/22 01:36:40;;;;;;;4.03;3.45;;;;;;;11.98;58.05;95588.31;6190200;23;20092;-87
2024/03/22 01:39:05;;;;;;;5.32;3.58;;;;;;;11.92;58.38;95596.84;6164402;23;20043;-87
2024/03/22 01:41:31;;;;;;;5.00;3.67;;;;;;;11.82;58.65;95585.81;6189568;23;20004;-87
2024/03/22 01:43:58;;;;;;;4.68;3.45;;;;;;;11.72;58.92;95592.06;6165889;23;20028;-88
2024/03/22 01:46:23;;;;;;;5.07;3.25;;;;;;;11.79;58.96;95588.78;6214552;23;20062;-87
2024/03/22 01:48:49;;;;;;;4.35;3.47;;;;;;;11.68;58.72;95572.56;6214284;23;20079;-88
2024/03/22 01:51:15;;;;;;;6.82;3.78;;;;;;;11.84;58.50;95584.66;6164955;23;20051;-87
2024/03/22 01:53:41;;;;;;;7.28;3.58;;;;;;;11.85;58.22;95580.25;6165096;23;20012;-87
2024/03/22 01:56:10;;;;;;;4.97;3.50;;;;;;;11.91;58.23;95582.97;6190321;23;20012;-87
2024/03/22 01:58:36;;;;;;;5.07;3.30;;;;;;;11.54;59.15;95575.94;6214112;23;19992;-87
2024/03/22 02:01:02;;;;;;;5.68;3.30;;;;;;;11.87;58.30;95575.66;6214826;23;20016;-88
2024/03/22 02:03:27;;;;;;;4.55;3.40;;;;;;;11.85;58.27;95580.25;6165327;23;20035;-87
2024/03/22 02:05:53;;;;;;;6.00;3.42;;;;;;;11.48;59.27;95574.00;6214746;23;20016;-87
2024/03/22 02:08:19;;;;;;;4.80;3.45;;;;;;;11.63;58.67;95564.47;6189554;23;20035;-87
2024/03/22 02:10:46;;;;;;;4.63;3.20;;;;;;;11.72;58.83;95560.78;6165989;23;20016;-87
2024/03/22 02:13:12;;;;;;;5.03;3.50;;;;;;;11.71;58.19;95550.56;6191309;23;20013;-87
2024/03/22 02:15:38;;;;;;;5.93;3.70;;;;;;;11.86;57.85;95558.41;6166318;23;20009;-87
2024/03/22 02:18:03;;;;;;;5.72;3.13;;;;;;;11.51;58.88;95561.44;6190094;23;20039;-87
2024/03/22 02:20:29;;;;;;;4.57;3.30;;;;;;;11.68;58.12;95553.50;6191298;23;20035;-86
2024/03/22 02:22:54;;;;;;;4.30;3.55;;;;;;;11.40;59.34;95554.03;6166855;23;20009;-87
2024/03/22 02:25:20;;;;;;;8.02;3.70;;;;;;;11.36;58.65;95537.16;6191030;23;20012;-88
2024/03/22 02:27:50;;;;;;;5.50;3.47;;;;;;;11.41;59.01;95547.88;6166099;23;20008;-87
2024/03/22 02:30:16;;;;;;;6.45;3.40;;;;;;;11.45;58.92;95556.94;6191450;23;20070;-87
2024/03/22 02:32:41;;;;;;;4.82;3.40;;;;;;;11.66;58.42;95542.47;6216187;23;20093;-87
2024/03/22 02:35:07;;;;;;;4.30;3.55;;;;;;;11.69;58.44;95542.91;6165928;23;20071;-87
2024/03/22 02:37:33;;;;;;;5.22;3.53;;;;;;;11.78;57.90;95532.41;6190218;23;20017;-88
2024/03/22 02:39:58;;;;;;;4.72;3.58;;;;;;;11.49;58.75;95536.56;6164619;23;20019;-87
2024/03/22 02:42:24;;;;;;;4.88;3.78;;;;;;;11.60;58.57;95537.97;6213633;23;20055;-87
2024/03/22 02:44:49;;;;;;;5.28;3.63;;;;;;;11.45;58.77;95532.69;6188518;23;20039;-88
2024/03/22 02:47:15;;;;;;;4.68;3.38;;;;;;;11.62;58.57;95534.19;6164056;23;20008;-87
2024/03/22 02:49:41;;;;;;;4.20;3.40;;;;;;;11.57;58.85;95538.31;6188628;23;20004;-88
2024/03/22 02:52:06;;;;;;;4.28;3.30;;;;;;;11.60;58.83;95537.97;6188512;23;20013;-87
2024/03/22 02:54:36;;;;;;;4.65;3.05;;;;;;;11.60;58.85;95530.16;6213223;23;20008;-87
2024/03/22 02:57:02;;;;;;;4.30;3.23;;;;;;;11.61;58.74;95518.72;6212497;23;20004;-87
2024/03/22 02:59:28;;;;;;;5.53;3.28;;;;;;;11.86;58.22;95524.50;6161945;23;20005;-86
2024/03/22 03:01:53;;;;;;;5.18;3.70;;;;;;;11.53;58.85;95533.44;6161575;23;20035;-86
2024/03/22 03:04:19;;;;;;;4.45;3.20;;;;;;;11.73;58.68;95520.72;6186552;23;20043;-87
2024/03/22 03:06:45;;;;;;;6.65;3.42;;;;;;;11.63;58.57;95517.56;6211365;23;20039;-87
2024/03/22 03:09:11;;;;;;;5.05;3.22;;;;;;;11.54;58.89;95508.22;6185955;23;20030;-87
2024/03/22 03:11:39;;;;;;;4.13;2.90;;;;;;;11.58;58.62;95522.50;6211972;23;20075;-87
2024/03/22 03:14:04;;;;;;;4.47;3.22;;;;;;;11.37;59.38;95524.97;6211416;23;20004;-87
2024/03/22 03:16:30;;;;;;;4.57;3.20;;;;;;;11.49;59.20;95520.94;6211205;23;20019;-88
2024/03/22 03:18:55;;;;;;;5.38;3.17;;;;;;;11.53;58.99;95507.38;6211413;23;19992;-87
2024/03/22 03:21:22;;;;;;;3.55;3.25;;;;;;;11.83;58.13;95520.47;6161806;23;20095;-87
2024/03/22 03:23:47;;;;;;;4.18;3.22;;;;;;;11.92;57.97;95514.22;6186438;23;20015;-87
2024/03/22 03:26:13;;;;;;;4.18;3.30;;;;;;;11.86;58.41;95503.66;6186403;23;20009;-86
2024/03/22 03:28:38;;;;;;;4.65;3.30;;;;;;;11.72;58.69;95513.09;6186637;23;20091;-87
2024/03/22 03:31:04;;;;;;;5.65;3.22;;;;;;;11.77;58.69;95502.94;6161148;23;20016;-87
2024/03/22 03:33:29;;;;;;;3.90;2.92;;;;;;;11.97;57.54;95505.06;6210654;23;20068;-87
2024/03/22 03:35:55;;;;;;;6.43;3.70;;;;;;;11.63;58.52;95517.56;6160899;23;20021;-87
2024/03/22 03:38:23;;;;;;;5.03;3.60;;;;;;;11.64;58.47;95515.78;6185982;23;20012;-87
2024/03/22 03:40:49;;;;;;;5.57;4.00;;;;;;;11.79;58.32;95506.19;6211336;23;20009;-87
2024/03/22 03:43:14;;;;;;;4.18;3.35;;;;;;;11.52;59.06;95504.97;6161510;23;20004;-87
2024/03/22 03:45:39;;;;;;;4.55;3.75;;;;;;;11.70;58.65;95512.47;6210973;23;20011;-87
2024/03/22 03:48:05;;;;;;;4.72;3.75;;;;;;;11.61;58.77;95503.88;6185801;23;20110;-88
2024/03/22 03:50:31;;;;;;;6.30;3.85;;;;;;;11.73;58.68;95510.31;6210845;23;20009;-87
2024/03/22 03:52:59;;;;;;;4.43;4.00;;;;;;;11.82;58.22;95510.22;6211308;23;20035;-86
2024/03/22 03:55:24;;;;;;;6.25;3.80;;;;;;;11.61;58.66;95495.28;6211373;23;20000;-87
2024/03/22 03:57:50;;;;;;;3.88;3.45;;;;;;;11.74;58.26;95493.66;6161365;23;20015;-87
2024/03/22 04:00:17;;;;;;;5.10;3.70;;;;;;;11.72;58.35;95493.03;6211411;23;20032;-87
2024/03/22 04:02:43;;;;;;;4.00;3.33;;;;;;;11.80;58.16;95475.72;6210745;23;20104;-86
2024/03/22 04:05:10;;;;;;;4.43;3.15;;;;;;;11.68;58.51;95486.56;6210994;23;20040;-88
2024/03/22 04:07:36;;;;;;;5.05;2.90;;;;;;;11.35;59.27;95486.88;6210885;23;20008;-87
2024/03/22 04:10:02;;;;;;;4.53;3.47;;;;;;;11.71;58.52;95486.22;6161314;23;20105;-87
2024/03/22 04:12:29;;;;;;;5.85;3.30;;;;;;;11.60;58.69;95488.47;6186263;23;20008;-88
2024/03/22 04:14:54;;;;;;;5.05;3.30;;;;;;;11.78;58.49;95488.91;6161174;23;20009;-87
2024/03/22 04:17:20;;;;;;;4.97;3.20;;;;;;;11.87;57.99;95481.84;6186090;23;20019;-86
2024/03/22 04:19:45;;;;;;;4.57;3.35;;;;;;;11.53;58.64;95483.94;6211340;23;19996;-88
2024/03/22 04:22:11;;;;;;;4.65;3.20;;;;;;;11.74;57.87;95472.03;6186397;23;20009;-87
2024/03/22 04:24:36;;;;;;;5.05;3.55;;;;;;;11.61;58.56;95488.25;6210568;23;20011;-87
2024/03/22 04:27:02;;;;;;;4.22;3.25;;;;;;;11.76;58.02;95483.06;6210920;23;20035;-87
2024/03/22 04:29:27;;;;;;;6.72;3.42;;;;;;;11.74;58.00;95483.25;6186146;23;20093;-87
2024/03/22 04:31:53;;;;;;;4.30;3.30;;;;;;;11.79;57.93;95476.72;6213034;23;20038;-86
2024/03/22 04:34:18;;;;;;;4.45;3.85;;;;;;;11.43;59.21;95479.97;6212789;23;20004;-87
2024/03/22 04:36:45;;;;;;;5.80;3.28;;;;;;;11.59;59.00;95479.00;6212475;23;20004;-86
2024/03/22 04:39:12;;;;;;;5.50;3.33;;;;;;;11.71;58.49;95462.78;6188299;23;20001;-87
2024/03/22 04:41:37;;;;;;;5.35;3.15;;;;;;;11.85;58.38;95470.78;6212842;23;20008;-87
2024/03/22 04:44:03;;;;;;;4.30;3.50;;;;;;;11.90;58.17;95466.69;6212925;23;20068;-87
2024/03/22 04:46:28;;;;;;;4.20;3.25;;;;;;;11.59;59.23;95453.75;6162609;23;20024;-87
2024/03/22 04:48:53;;;;;;;3.28;2.97;;;;;;;11.54;59.30;95458.72;6212885;23;20008;-88
2024/03/22 04:51:19;;;;;;;8.18;3.25;;;;;;;11.85;58.25;95468.19;6220886;23;20011;-87
2024/03/22 04:53:44;;;;;;;7.75;3.50;;;;;;;12.10;57.85;95458.31;6216358;23;20024;-87
2024/03/22 04:56:10;;;;;;;3.30;3.00;;;;;;;11.98;58.22;95464.97;6187329;23;20096;-87
2024/03/22 04:58:35;;;;;;;3.80;3.10;;;;;;;12.16;57.48;95467.22;6212712;23;20001;-88
2024/03/22 05:01:00;;;;;;;4.05;3.00;;;;;;;12.05;57.92;95461.47;6188058;23;20019;-87
2024/03/22 05:03:26;;;;;;;5.53;2.85;;;;;;;12.24;57.06;95456.69;6187888;23;20027;-87
2024/03/22 05:05:51;;;;;;;3.80;2.95;;;;;;;12.27;57.22;95467.56;6187537;23;20023;-87
2024/03/22 05:08:17;;;;;;;5.82;3.30;;;;;;;12.17;57.39;95461.03;6212225;23;20080;-87
2024/03/22 05:10:42;;;;;;;3.75;2.80;;;;;;;12.25;57.04;95455.69;6212547;23;20016;-87
2024/03/22 05:13:08;;;;;;;3.90;2.85;;;;;;;12.57;55.99;95462.31;6212069;23;20000;-86
2024/03/22 05:15:33;;;;;;;5.72;2.90;;;;;;;12.27;57.10;95456.31;6162035;23;20004;-87
2024/03/22 05:17:59;;;;;;;3.58;2.53;;;;;;;12.42;56.44;95459.72;6161916;23;20014;-87
2024/03/22 05:20:26;;;;;;;5.88;2.78;;;;;;;12.40;56.68;95461.69;6212566;23;20009;-88
2024/03/22 05:22:51;;;;;;;6.15;3.00;;;;;;;12.23;56.91;95455.06;6186678;23;20015;-87
2024/03/22 05:25:17;;;;;;;5.03;2.50;;;;;;;12.36;56.93;95455.25;6186716;23;20012;-87
2024/03/22 05:27:44;;;;;;;4.55;2.75;;;;;;;12.32;57.01;95444.34;6211965;23;20016;-86
2024/03/22 05:30:10;;;;;;;3.78;3.42;;;;;;;12.31;57.29;95452.34;6187171;23;20089;-87
2024/03/22 05:32:36;;;;;;;3.97;3.05;;;;;;;12.49;56.22;95455.38;6187056;23;20019;-87
2024/03/22 05:35:02;;;;;;;4.18;2.83;;;;;;;12.65;55.91;95441.31;6187343;23;20064;-87
2024/03/22 05:37:27;;;;;;;3.08;2.58;;;;;;;12.56;56.14;95439.00;6162086;23;20012;-86
2024/03/22 05:39:52;;;;;;;3.95;2.97;;;;;;;12.44;56.96;95446.50;6186878;23;20017;-87
2024/03/22 05:42:18;;;;;;;6.68;3.45;;;;;;;12.27;57.49;95440.69;6162041;23;20015;-88
2024/03/22 05:44:46;;;;;;;4.50;3.33;;;;;;;12.43;56.88;95440.47;6187031;23;20008;-87
2024/03/22 05:47:12;;;;;;;3.17;2.80;;;;;;;12.58;56.15;95431.78;6187384;23;20016;-87
2024/03/22 05:49:37;;;;;;;5.53;3.45;;;;;;;12.66;55.82;95435.09;6187099;23;20043;-87
2024/03/22 05:52:03;;;;;;;5.10;2.97;;;;;;;12.76;55.29;95434.81;6212281;23;20016;-88
2024/03/22 05:54:28;;;;;;;5.30;3.10;;;;;;;12.70;55.66;95438.16;6212334;23;20036;-87
2024/03/22 05:56:54;;;;;;;5.15;3.25;;;;;;;12.91;55.39;95432.94;6161855;23;20019;-87
2024/03/22 05:59:20;;;;;;;4.47;3.00;;;;;;;13.14;54.30;95429.31;6187264;23;20005;-88
2024/03/22 06:01:45;;;;;;;4.53;2.90;;;;;;;12.99;55.35;95428.59;6186875;23;20019;-88
2024/03/22 06:04:11;;;;;;;4.13;2.85;;;;;;;13.08;55.44;95427.47;6211793;23;20000;-87
2024/03/22 06:06:36;;;;;;;3.47;2.60;;;;;;;12.96;55.94;95423.72;6162052;23;20012;-87
2024/03/22 06:09:09;;;;;;;3.08;2.78;;;;;;;13.05;55.87;95415.59;6211903;23;20044;-87
2024/03/22 06:11:39;;;;;;;3.75;3.03;;;;;;;12.97;56.33;95414.91;6188813;23;20008;-87
2024/03/22 06:14:05;;;;;;;3.92;3.20;;;;;;;13.29;55.77;95419.59;6211993;23;20001;-88
2024/03/22 06:16:30;;;;;;;5.07;3.05;;;;;;;13.25;55.83;95420.97;6186626;23;20047;-88
2024/03/22 06:18:56;;;;;;;4.15;3.15;;;;;;;13.62;54.74;95419.06;6162173;23;20004;-87
2024/03/22 06:21:24;;;;;;;5.63;3.30;;;;;;;14.23;53.32;95422.78;6211795;23;20091;-87
2024/03/22 06:23:50;;;;;;;4.95;3.05;;;;;;;14.33;53.01;95425.03;6187361;23;20062;-88
2024/03/22 06:26:16;;;;;;;3.10;2.80;;;;;;;14.72;51.39;95410.50;6186874;23;20017;-88
2024/03/22 06:28:41;;;;;;;3.53;2.60;;;;;;;15.03;51.34;95415.97;6186916;23;20039;-87
2024/03/22 06:31:07;;;;;;;4.43;3.13;;;;;;;15.13;51.23;95415.56;6186371;23;20016;-88
2024/03/22 06:33:33;;;;;;;4.07;2.78;;;;;;;15.05;50.17;95400.06;6211478;23;20008;-88
2024/03/22 06:35:58;;;;;;;4.22;2.38;;;;;;;15.40;48.29;95399.84;6161521;23;20019;-88
2024/03/22 06:38:24;;;;;;;3.72;2.58;;;;;;;15.24;49.53;95401.88;6186807;23;20008;-88
2024/03/22 06:40:49;;;;;;;5.63;2.90;;;;;;;15.23;50.18;95402.06;6161970;23;20008;-87
2024/03/22 06:43:14;;;;;;;4.82;2.47;;;;;;;15.25;49.85;95408.75;6185771;23;20013;-88
2024/03/22 06:45:40;;;;;;;4.05;2.60;;;;;;;15.53;48.73;95405.06;6185035;23;20012;-87
2024/03/22 06:48:05;;;;;;;2.80;2.35;;;;;;;15.33;49.41;95391.22;6210581;23;20043;-88
2024/03/22 06:50:33;;;;;;;2.75;2.42;;;;;;;15.51;49.68;95401.84;6185367;23;20078;-87
2024/03/22 06:52:59;;;;;;;5.10;2.58;;;;;;;15.55;49.60;95400.44;6185769;23;20004;-85
2024/03/22 06:55:24;;;;;;;3.85;2.55;;;;;;;15.48;49.62;95397.03;6186580;23;20016;-87
2024/03/22 06:57:51;;;;;;;2.97;2.65;;;;;;;15.56;51.02;95396.81;6161350;23;20012;-87
2024/03/22 07:00:18;;;;;;;4.57;2.90;;;;;;;15.65;52.18;95392.19;6211594;23;20008;-87
2024/03/22 07:02:44;;;;;;;4.35;2.90;;;;;;;15.70;50.99;95397.59;6161949;23;20087;-87
2024/03/22 07:05:10;;;;;;;5.78;2.42;;;;;;;15.63;50.46;95391.53;6211182;23;20031;-87
2024/03/22 07:07:37;;;;;;;3.97;2.83;;;;;;;15.59;50.97;95406.91;6186138;23;20004;-86
2024/03/22 07:10:03;;;;;;;4.15;2.40;;;;;;;15.62;50.51;95396.00;6210420;23;20015;-87
2024/03/22 07:12:29;;;;;;;3.97;2.50;;;;;;;15.48;51.91;95391.78;6209779;23;20074;-87
2024/03/22 07:14:59;;;;;;;2.60;2.40;;;;;;;15.79;51.26;95395.59;6210282;23;20008;-86
2024/03/22 07:17:24;;;;;;;3.03;2.50;;;;;;;16.01;51.13;95401.38;6186631;23;20019;-87
2024/03/22 07:19:51;;;;;;;3.85;2.70;;;;;;;15.93;51.49;95402.41;6185844;23;20004;-87
2024/03/22 07:22:17;;;;;;;4.88;3.10;;;;;;;16.22;51.24;95406.38;6185833;23;20004;-87
2024/03/22 07:24:43;;;;;;;5.50;3.30;;;;;;;15.89;52.19;95403.03;6160682;23;20019;-87
2024/03/22 07:27:08;;;;;;;5.85;3.20;;;;;;;15.69;52.42;95401.25;6210648;23;20008;-87
2024/03/22 07:29:33;;;;;;;6.60;3.45;;;;;;;16.02;51.85;95403.00;6210597;23;20019;-87
2024/03/22 07:31:59;;;;;;;3.83;3.33;;;;;;;16.06;51.52;95404.19;6185924;23;20013;-87
2024/03/22 07:34:24;;;;;;;4.63;3.10;;;;;;;16.02;51.68;95403.00;6161105;23;20005;-88
2024/03/22 07:36:50;;;;;;;4.43;3.03;;;;;;;16.14;52.71;95400.53;6185352;23;20012;-88
2024/03/22 07:39:15;;;;;;;5.82;3.08;;;;;;;16.23;51.63;95399.28;6209801;23;20008;-87
2024/03/22 07:41:40;;;;;;;3.13;2.67;;;;;;;16.77;48.24;95392.75;6210016;23;20013;-87
2024/03/22 07:44:06;;;;;;;2.55;2.35;;;;;;;16.80;44.41;95400.19;6210073;23;20012;-86
2024/03/22 07:46:36;;;;;;;4.55;2.47;;;;;;;17.24;45.20;95405.59;6159984;23;20043;-87
2024/03/22 07:49:04;;;;;;;4.80;2.28;;;;;;;17.52;44.53;95406.97;6160697;23;20016;-87
2024/03/22 07:51:29;;;;;;;3.28;2.40;;;;;;;18.20;43.00;95400.84;6185878;23;20008;-87
2024/03/22 07:53:55;;;;;;;4.10;2.30;;;;;;;18.58;41.37;95409.50;6185063;23;20019;-88
2024/03/22 07:56:23;;;;;;;4.70;2.38;;;;;;;18.31;42.30;95396.66;6185811;23;20009;-88
2024/03/22 07:58:48;;;;;;;4.10;2.15;;;;;;;19.69;39.81;95407.22;6210234;23;20066;-88
2024/03/22 08:01:14;;;;;;;4.80;2.05;;;;;;;21.75;35.03;95402.06;6184962;23;20009;-87
2024/03/22 08:03:39;;;;;;;4.28;1.90;;;;;;;22.72;33.59;95399.03;6160153;23;20016;-87
2024/03/22 08:06:06;;;;;;;3.03;1.80;;;;;;;23.41;33.88;95404.44;6186141;23;20071;-87
2024/03/22 08:08:31;;;;;;;5.32;1.83;;;;;;;24.67;31.50;95397.72;6186191;23;20062;-87
2024/03/22 08:10:57;;;;;;;3.72;1.83;;;;;;;26.15;28.35;95404.94;6186151;23;20087;-88
2024/03/22 08:13:22;;;;;;;3.83;1.92;;;;;;;26.39;27.86;95407.78;6210766;23;20066;-87
2024/03/22 08:15:48;;;;;;;2.50;1.90;;;;;;;26.32;28.67;95401.94;6185983;23;20031;-88
2024/03/22 08:18:13;;;;;;;2.88;1.88;;;;;;;26.00;28.39;95392.44;6209143;23;20008;-87
2024/03/22 08:20:39;;;;;;;2.00;1.60;;;;;;;26.67;27.37;95400.19;6185558;23;20039;-86
2024/03/22 08:23:05;;;;;;;2.40;1.73;;;;;;;25.96;27.98;95391.38;6159782;23;20012;-86
2024/03/22 08:25:30;;;;;;;3.00;1.90;;;;;;;26.30;26.48;95388.09;6209248;23;20035;-86
2024/03/22 08:27:58;;;;;;;3.15;1.73;;;;;;;26.67;27.40;95393.03;6184363;23;20004;-86
2024/03/22 08:30:25;;;;;;;2.63;1.60;;;;;;;26.63;27.47;95388.50;6186081;23;20008;-86
2024/03/22 08:32:50;;;;;;;1.60;1.50;;;;;;;26.73;27.38;95380.41;6210754;23;20005;-86
2024/03/22 08:35:18;;;;;;;2.78;1.80;;;;;;;27.63;25.78;95395.28;6185264;23;20013;-86
2024/03/22 08:37:43;;;;;;;2.40;1.60;;;;;;;27.78;26.50;95401.53;6185803;23;20096;-86
2024/03/22 08:40:09;;;;;;;3.15;1.80;;;;;;;26.86;26.32;95381.69;6186191;23;20067;-86
2024/03/22 08:42:35;;;;;;;2.67;1.58;;;;;;;26.47;27.09;95387.75;6235513;23;20004;-86
2024/03/22 08:45:01;;;;;;;3.25;1.70;;;;;;;26.30;27.75;95391.53;6186090;23;20111;-86
2024/03/22 08:47:26;;;;;;;2.70;1.77;;;;;;;25.55;28.71;95378.94;6185722;23;20118;-86
2024/03/22 08:49:52;;;;;;;2.95;1.60;;;;;;;25.64;29.25;95378.38;6185893;23;20039;-86
2024/03/22 08:52:17;;;;;;;3.08;1.80;;;;;;;25.06;30.43;95379.44;6211184;23;20038;-86
2024/03/22 08:54:43;;;;;;;2.45;1.75;;;;;;;24.96;29.24;95374.91;6161261;23;20013;-86
2024/03/22 08:57:08;;;;;;;2.67;1.63;;;;;;;24.66;30.08;95369.53;6185810;23;20008;-86
2024/03/22 08:59:35;;;;;;;2.10;1.70;;;;;;;24.57;30.92;95375.34;6185689;23;20008;-87
2024/03/22 09:02:00;;;;;;;1.73;1.42;;;;;;;24.59;29.96;95369.78;6185795;23;20019;-87
2024/03/22 09:04:26;;;;;;;2.95;1.50;;;;;;;24.45;30.23;95369.44;6185928;23;20040;-87
2024/03/22 09:06:51;;;;;;;2.15;1.60;;;;;;;24.25;31.22;95369.38;6191925;23;20026;-87
2024/03/22 09:09:17;;;;;;;2.35;1.63;;;;;;;24.44;31.46;95372.38;6192218;23;20025;-88
2024/03/22 09:11:42;;;;;;;3.05;1.85;;;;;;;24.52;31.10;95363.91;6211016;23;20011;-86
2024/03/22 09:14:08;;;;;;;4.20;1.63;;;;;;;24.52;30.50;95364.72;6185759;23;20008;-87
2024/03/22 09:16:33;;;;;;;2.58;1.77;;;;;;;24.32;30.90;95368.06;6186131;23;20053;-87
2024/03/22 09:18:59;;;;;;;2.85;1.70;;;;;;;23.88;31.00;95347.16;6185819;23;20016;-87
2024/03/22 09:21:24;;;;;;;2.55;1.63;;;;;;;23.67;29.79;95359.50;6185759;23;20088;-87
2024/03/22 09:23:51;;;;;;;2.92;1.70;;;;;;;23.43;31.00;95357.22;6185797;23;20096;-88
2024/03/22 09:26:16;;;;;;;3.92;1.50;;;;;;;23.39;30.99;95355.34;6210659;23;20031;-88
2024/03/22 09:28:42;;;;;;;3.15;1.60;;;;;;;22.70;31.76;95342.81;6210558;23;20020;-88
2024/03/22 09:31:08;;;;;;;4.43;1.77;;;;;;;22.43;32.12;95344.41;6184447;23;20013;-87
2024/03/22 09:33:36;;;;;;;3.42;1.60;;;;;;;22.18;32.87;95344.91;6211514;23;20019;-92
2024/03/22 09:36:05;;;;;;;2.70;1.50;;;;;;;22.70;33.22;95350.75;6185240;23;20060;-89
2024/03/22 09:38:30;;;;;;;2.80;1.80;;;;;;;22.54;31.72;95341.84;6185831;23;20075;-88
2024/03/22 10:27:59;;;;;;;3.05;1.50;;;;;;;23.14;30.20;95293.06;6209756;22;20016;-87
2024/03/22 10:30:25;;;;;;;3.67;1.98;;;;;;;23.21;31.76;95287.56;6189756;23;20040;-87
2024/03/22 10:32:51;;;;;;;2.45;1.80;;;;;;;23.15;31.63;95280.59;6215438;23;20004;-86
2024/03/22 10:35:19;;;;;;;2.65;1.80;;;;;;;22.64;33.26;95288.94;6215428;23;20000;-86
2024/03/22 10:37:44;;;;;;;5.20;1.92;;;;;;;22.14;34.56;95282.03;6215149;23;20012;-85
2024/03/22 10:40:11;;;;;;;3.70;1.90;;;;;;;22.32;33.23;95273.00;6227323;23;20027;-86
2024/03/22 10:42:41;;;;;;;2.05;1.65;;;;;;;22.30;32.95;95275.09;6214455;23;20020;-85
2024/03/22 10:45:12;;;;;;;2.63;1.63;;;;;;;22.23;33.98;95276.03;6215085;23;20019;-86
2024/03/22 10:47:40;;;;;;;;;;;;;;;21.94;34.81;95272.03;6241058;23;20030;-86
2024/03/22 10:50:08;;;;;;;3.70;1.80;;;;;;;22.34;34.24;95268.25;6214719;23;20021;-86
2024/03/22 10:57:38;;;;;;;2.92;1.73;;;;;;;22.38;33.17;95264.84;6240046;22;20016;-85
2024/03/22 11:00:10;;;;;;;3.43;1.87;;;;;;;22.50;34.18;95263.88;6188829;23;20092;-85
2024/03/22 11:08:08;;;;;;;2.72;1.50;;;;;;;22.82;30.79;95242.66;6210382;22;20021;-85
2024/03/22 11:13:02;;;;;;;1.83;1.40;;;;;;;22.64;32.98;95236.72;6213947;22;20024;-86
2024/03/22 11:15:31;;;;;;;2.65;1.65;;;;;;;22.56;34.50;95244.31;6184927;23;20284;-85
2024/03/22 11:17:57;;;;;;;2.03;1.50;;;;;;;22.50;32.60;95247.97;6184879;23;20004;-87
2024/03/22 11:20:23;;;;;;;2.28;1.45;;;;;;;22.30;32.44;95241.44;6159796;23;20052;-87
2024/03/22 11:22:53;;;;;;;1.65;1.50;;;;;;;22.29;33.96;95231.88;6159052;23;20017;-86
2024/03/22 11:25:20;;;;;;;2.17;1.40;;;;;;;22.57;33.56;95232.69;6183415;23;20074;-87
